sensor_id;sensor_type;location;lat;lon;timestamp;P1;durP1;ratioP1;P2;durP2;ratioP2
23346;SDS011;36852;45.466;11.066;2023-10-08T00:01:12;48.75;;;29.00;;
23346;SDS011;36852;45.466;11.066;2023-10-08T00:03:45;47.53;;;28.57;;
23346;SDS011;36852;45.466;11.066;2023-10-08T00:06:19;45.10;;;27.17;;
23346;SDS011;36852;45.466;11.066;2023-10-08T00:08:48;44.25;;;27.82;;
23346;SDS011;36852;45.466;11.066;2023-10-08T00:11:17;44.08;;;26.70;;
23346;SDS011;36852;45.466;11.066;2023-10-08T00:13:46;41.73;;;27.35;;
23346;SDS011;36852;45.466;11.066;2023-10-08T00:16:16;44.50;;;26.50;;
23346;SDS011;36852;45.466;11.066;2023-10-08T00:18:45;45.03;;;27.32;;
23346;SDS011;36852;45.466;11.066;2023-10-08T00:21:16;44.13;;;26.93;;
23346;SDS011;36852;45.466;11.066;2023-10-08T00:23:55;45.58;;;28.45;;
23346;SDS011;36852;45.466;11.066;2023-10-08T00:26:27;43.73;;;28.25;;
23346;SDS011;36852;45.466;11.066;2023-10-08T00:31:31;41.20;;;26.62;;
23346;SDS011;36852;45.466;11.066;2023-10-08T00:34:01;44.05;;;26.52;;
23346;SDS011;36852;45.466;11.066;2023-10-08T00:36:31;41.80;;;26.45;;
23346;SDS011;36852;45.466;11.066;2023-10-08T00:39:03;46.02;;;27.13;;
23346;SDS011;36852;45.466;11.066;2023-10-08T00:41:32;43.73;;;29.32;;
23346;SDS011;36852;45.466;11.066;2023-10-08T00:44:01;46.33;;;28.73;;
23346;SDS011;36852;45.466;11.066;2023-10-08T00:46:28;49.98;;;29.20;;
23346;SDS011;36852;45.466;11.066;2023-10-08T00:49:02;47.30;;;28.95;;
23346;SDS011;36852;45.466;11.066;2023-10-08T00:51:47;45.25;;;29.70;;
23346;SDS011;36852;45.466;11.066;2023-10-08T00:54:18;50.98;;;29.10;;
23346;SDS011;36852;45.466;11.066;2023-10-08T00:56:46;48.28;;;29.02;;
23346;SDS011;36852;45.466;11.066;2023-10-08T00:59:20;44.48;;;27.77;;
23346;SDS011;36852;45.466;11.066;2023-10-08T01:01:49;41.63;;;25.77;;
23346;SDS011;36852;45.466;11.066;2023-10-08T01:04:28;42.45;;;27.02;;
23346;SDS011;36852;45.466;11.066;2023-10-08T01:07:01;44.38;;;26.57;;
23346;SDS011;36852;45.466;11.066;2023-10-08T01:09:31;40.70;;;25.82;;
23346;SDS011;36852;45.466;11.066;2023-10-08T01:12:08;44.25;;;27.13;;
23346;SDS011;36852;45.466;11.066;2023-10-08T01:14:45;43.83;;;25.95;;
23346;SDS011;36852;45.466;11.066;2023-10-08T01:17:15;43.35;;;24.57;;
23346;SDS011;36852;45.466;11.066;2023-10-08T01:19:43;44.13;;;26.93;;
23346;SDS011;36852;45.466;11.066;2023-10-08T01:22:12;44.27;;;26.73;;
23346;SDS011;36852;45.466;11.066;2023-10-08T01:24:42;41.15;;;26.90;;
23346;SDS011;36852;45.466;11.066;2023-10-08T01:27:11;43.13;;;26.62;;
23346;SDS011;36852;45.466;11.066;2023-10-08T01:29:39;47.38;;;28.12;;
23346;SDS011;36852;45.466;11.066;2023-10-08T01:32:07;48.15;;;26.95;;
23346;SDS011;36852;45.466;11.066;2023-10-08T01:34:37;42.33;;;26.15;;
23346;SDS011;36852;45.466;11.066;2023-10-08T01:37:06;50.25;;;29.12;;
23346;SDS011;36852;45.466;11.066;2023-10-08T01:39:38;47.03;;;28.62;;
23346;SDS011;36852;45.466;11.066;2023-10-08T01:42:11;46.63;;;28.30;;
23346;SDS011;36852;45.466;11.066;2023-10-08T01:44:48;45.15;;;28.38;;
23346;SDS011;36852;45.466;11.066;2023-10-08T01:47:20;43.68;;;27.40;;
23346;SDS011;36852;45.466;11.066;2023-10-08T01:49:50;47.58;;;28.98;;
23346;SDS011;36852;45.466;11.066;2023-10-08T01:52:19;43.98;;;27.93;;
23346;SDS011;36852;45.466;11.066;2023-10-08T01:54:51;47.75;;;28.55;;
23346;SDS011;36852;45.466;11.066;2023-10-08T01:57:20;47.40;;;28.23;;
23346;SDS011;36852;45.466;11.066;2023-10-08T02:02:31;51.73;;;30.75;;
23346;SDS011;36852;45.466;11.066;2023-10-08T02:05:01;49.48;;;31.85;;
23346;SDS011;36852;45.466;11.066;2023-10-08T02:07:29;49.98;;;29.92;;
23346;SDS011;36852;45.466;11.066;2023-10-08T02:10:04;58.15;;;32.78;;
23346;SDS011;36852;45.466;11.066;2023-10-08T02:12:34;51.77;;;32.80;;
23346;SDS011;36852;45.466;11.066;2023-10-08T02:15:02;48.38;;;30.02;;
23346;SDS011;36852;45.466;11.066;2023-10-08T02:17:31;46.45;;;28.55;;
23346;SDS011;36852;45.466;11.066;2023-10-08T02:19:59;48.52;;;28.30;;
23346;SDS011;36852;45.466;11.066;2023-10-08T02:22:30;43.30;;;28.32;;
23346;SDS011;36852;45.466;11.066;2023-10-08T02:24:58;48.40;;;28.85;;
23346;SDS011;36852;45.466;11.066;2023-10-08T02:27:27;48.50;;;29.72;;
23346;SDS011;36852;45.466;11.066;2023-10-08T02:29:55;46.77;;;28.23;;
23346;SDS011;36852;45.466;11.066;2023-10-08T02:32:23;48.98;;;29.07;;
23346;SDS011;36852;45.466;11.066;2023-10-08T02:34:51;50.05;;;29.07;;
23346;SDS011;36852;45.466;11.066;2023-10-08T02:37:19;52.15;;;28.38;;
23346;SDS011;36852;45.466;11.066;2023-10-08T02:39:47;44.10;;;27.95;;
23346;SDS011;36852;45.466;11.066;2023-10-08T02:42:16;47.27;;;28.73;;
23346;SDS011;36852;45.466;11.066;2023-10-08T02:44:48;48.48;;;30.00;;
23346;SDS011;36852;45.466;11.066;2023-10-08T02:47:16;45.52;;;27.75;;
23346;SDS011;36852;45.466;11.066;2023-10-08T02:49:48;47.55;;;28.15;;
23346;SDS011;36852;45.466;11.066;2023-10-08T02:52:16;50.25;;;29.70;;
23346;SDS011;36852;45.466;11.066;2023-10-08T02:54:47;49.03;;;29.30;;
23346;SDS011;36852;45.466;11.066;2023-10-08T02:57:15;50.35;;;29.23;;
23346;SDS011;36852;45.466;11.066;2023-10-08T02:59:43;45.92;;;28.77;;
23346;SDS011;36852;45.466;11.066;2023-10-08T03:02:13;46.08;;;29.67;;
23346;SDS011;36852;45.466;11.066;2023-10-08T03:04:49;46.92;;;29.72;;
23346;SDS011;36852;45.466;11.066;2023-10-08T03:07:20;47.95;;;29.05;;
23346;SDS011;36852;45.466;11.066;2023-10-08T03:09:52;46.00;;;28.23;;
23346;SDS011;36852;45.466;11.066;2023-10-08T03:12:34;45.55;;;28.27;;
23346;SDS011;36852;45.466;11.066;2023-10-08T03:15:03;47.80;;;28.42;;
23346;SDS011;36852;45.466;11.066;2023-10-08T03:17:41;46.98;;;28.57;;
23346;SDS011;36852;45.466;11.066;2023-10-08T03:20:18;48.70;;;28.62;;
23346;SDS011;36852;45.466;11.066;2023-10-08T03:22:57;48.17;;;30.32;;
23346;SDS011;36852;45.466;11.066;2023-10-08T03:25:25;45.75;;;28.47;;
23346;SDS011;36852;45.466;11.066;2023-10-08T03:27:53;45.48;;;29.15;;
23346;SDS011;36852;45.466;11.066;2023-10-08T03:30:21;48.13;;;28.92;;
23346;SDS011;36852;45.466;11.066;2023-10-08T03:32:52;46.63;;;29.20;;
23346;SDS011;36852;45.466;11.066;2023-10-08T03:35:22;47.93;;;27.95;;
23346;SDS011;36852;45.466;11.066;2023-10-08T03:37:52;49.38;;;29.27;;
23346;SDS011;36852;45.466;11.066;2023-10-08T03:40:21;46.70;;;28.52;;
23346;SDS011;36852;45.466;11.066;2023-10-08T03:42:52;42.75;;;26.07;;
23346;SDS011;36852;45.466;11.066;2023-10-08T03:45:21;47.58;;;28.52;;
23346;SDS011;36852;45.466;11.066;2023-10-08T03:48:01;51.25;;;30.30;;
23346;SDS011;36852;45.466;11.066;2023-10-08T03:50:31;53.40;;;29.95;;
23346;SDS011;36852;45.466;11.066;2023-10-08T03:53:04;46.00;;;28.85;;
23346;SDS011;36852;45.466;11.066;2023-10-08T03:55:32;48.13;;;28.77;;
23346;SDS011;36852;45.466;11.066;2023-10-08T03:58:02;48.28;;;29.80;;
23346;SDS011;36852;45.466;11.066;2023-10-08T04:00:31;49.73;;;29.05;;
23346;SDS011;36852;45.466;11.066;2023-10-08T04:02:59;49.00;;;29.72;;
23346;SDS011;36852;45.466;11.066;2023-10-08T04:05:32;47.60;;;27.67;;
23346;SDS011;36852;45.466;11.066;2023-10-08T04:08:02;52.43;;;30.90;;
23346;SDS011;36852;45.466;11.066;2023-10-08T04:10:35;55.35;;;30.10;;
23346;SDS011;36852;45.466;11.066;2023-10-08T04:13:08;56.02;;;30.43;;
23346;SDS011;36852;45.466;11.066;2023-10-08T04:15:37;51.95;;;29.40;;
23346;SDS011;36852;45.466;11.066;2023-10-08T04:18:09;47.38;;;28.73;;
23346;SDS011;36852;45.466;11.066;2023-10-08T04:20:38;52.58;;;28.75;;
23346;SDS011;36852;45.466;11.066;2023-10-08T04:23:07;47.10;;;27.90;;
23346;SDS011;36852;45.466;11.066;2023-10-08T04:25:41;48.87;;;28.12;;
23346;SDS011;36852;45.466;11.066;2023-10-08T04:28:10;46.35;;;29.05;;
23346;SDS011;36852;45.466;11.066;2023-10-08T04:30:40;51.85;;;30.97;;
23346;SDS011;36852;45.466;11.066;2023-10-08T04:33:09;47.98;;;27.65;;
23346;SDS011;36852;45.466;11.066;2023-10-08T04:35:39;50.50;;;28.40;;
23346;SDS011;36852;45.466;11.066;2023-10-08T04:38:23;47.85;;;27.50;;
23346;SDS011;36852;45.466;11.066;2023-10-08T04:40:53;51.98;;;28.67;;
23346;SDS011;36852;45.466;11.066;2023-10-08T04:43:22;49.30;;;27.58;;
23346;SDS011;36852;45.466;11.066;2023-10-08T04:45:58;49.20;;;27.98;;
23346;SDS011;36852;45.466;11.066;2023-10-08T04:48:26;51.53;;;28.52;;
23346;SDS011;36852;45.466;11.066;2023-10-08T04:50:57;48.13;;;28.98;;
23346;SDS011;36852;45.466;11.066;2023-10-08T04:53:29;46.02;;;26.62;;
23346;SDS011;36852;45.466;11.066;2023-10-08T04:56:06;49.08;;;27.65;;
23346;SDS011;36852;45.466;11.066;2023-10-08T04:58:37;43.38;;;24.32;;
23346;SDS011;36852;45.466;11.066;2023-10-08T05:01:07;43.90;;;24.80;;
23346;SDS011;36852;45.466;11.066;2023-10-08T05:06:28;44.65;;;26.30;;
23346;SDS011;36852;45.466;11.066;2023-10-08T05:09:09;45.12;;;25.52;;
23346;SDS011;36852;45.466;11.066;2023-10-08T05:14:35;43.17;;;23.65;;
23346;SDS011;36852;45.466;11.066;2023-10-08T05:17:06;41.80;;;23.15;;
23346;SDS011;36852;45.466;11.066;2023-10-08T05:19:39;40.58;;;22.82;;
23346;SDS011;36852;45.466;11.066;2023-10-08T05:22:10;33.13;;;21.42;;
23346;SDS011;36852;45.466;11.066;2023-10-08T05:24:46;31.48;;;18.65;;
23346;SDS011;36852;45.466;11.066;2023-10-08T05:27:35;36.13;;;18.32;;
23346;SDS011;36852;45.466;11.066;2023-10-08T05:30:35;33.28;;;18.05;;
23346;SDS011;36852;45.466;11.066;2023-10-08T05:35:45;31.87;;;16.25;;
23346;SDS011;36852;45.466;11.066;2023-10-08T05:38:18;26.77;;;15.72;;
23346;SDS011;36852;45.466;11.066;2023-10-08T05:40:51;26.62;;;15.83;;
23346;SDS011;36852;45.466;11.066;2023-10-08T05:43:35;29.18;;;17.87;;
23346;SDS011;36852;45.466;11.066;2023-10-08T05:46:10;27.85;;;16.50;;
23346;SDS011;36852;45.466;11.066;2023-10-08T05:51:38;27.90;;;14.78;;
23346;SDS011;36852;45.466;11.066;2023-10-08T05:54:18;21.45;;;12.93;;
23346;SDS011;36852;45.466;11.066;2023-10-08T05:57:07;23.70;;;13.20;;
23346;SDS011;36852;45.466;11.066;2023-10-08T05:59:47;26.17;;;13.55;;
23346;SDS011;36852;45.466;11.066;2023-10-08T06:02:26;22.87;;;13.17;;
23346;SDS011;36852;45.466;11.066;2023-10-08T06:05:09;32.75;;;14.07;;
23346;SDS011;36852;45.466;11.066;2023-10-08T06:10:25;30.92;;;12.90;;
23346;SDS011;36852;45.466;11.066;2023-10-08T06:13:07;23.90;;;11.60;;
23346;SDS011;36852;45.466;11.066;2023-10-08T06:15:50;27.07;;;11.78;;
23346;SDS011;36852;45.466;11.066;2023-10-08T06:18:27;25.72;;;12.47;;
23346;SDS011;36852;45.466;11.066;2023-10-08T06:20:58;25.62;;;11.65;;
23346;SDS011;36852;45.466;11.066;2023-10-08T06:23:28;20.00;;;11.08;;
23346;SDS011;36852;45.466;11.066;2023-10-08T06:26:00;23.12;;;10.98;;
23346;SDS011;36852;45.466;11.066;2023-10-08T06:28:30;22.42;;;11.18;;
23346;SDS011;36852;45.466;11.066;2023-10-08T06:30:58;18.90;;;9.88;;
23346;SDS011;36852;45.466;11.066;2023-10-08T06:35:59;19.05;;;9.23;;
23346;SDS011;36852;45.466;11.066;2023-10-08T06:38:35;17.25;;;9.30;;
23346;SDS011;36852;45.466;11.066;2023-10-08T06:41:06;21.35;;;10.00;;
23346;SDS011;36852;45.466;11.066;2023-10-08T06:43:44;20.30;;;11.30;;
23346;SDS011;36852;45.466;11.066;2023-10-08T06:46:32;24.77;;;11.65;;
23346;SDS011;36852;45.466;11.066;2023-10-08T06:49:03;18.87;;;10.75;;
23346;SDS011;36852;45.466;11.066;2023-10-08T06:51:33;20.77;;;11.20;;
23346;SDS011;36852;45.466;11.066;2023-10-08T06:54:01;22.67;;;13.25;;
23346;SDS011;36852;45.466;11.066;2023-10-08T06:56:30;23.85;;;11.40;;
23346;SDS011;36852;45.466;11.066;2023-10-08T06:59:02;22.22;;;12.53;;
23346;SDS011;36852;45.466;11.066;2023-10-08T07:01:31;25.45;;;13.13;;
23346;SDS011;36852;45.466;11.066;2023-10-08T07:04:00;26.50;;;14.05;;
23346;SDS011;36852;45.466;11.066;2023-10-08T07:06:32;25.57;;;13.30;;
23346;SDS011;36852;45.466;11.066;2023-10-08T07:09:02;25.60;;;14.33;;
23346;SDS011;36852;45.466;11.066;2023-10-08T07:11:36;29.40;;;15.13;;
23346;SDS011;36852;45.466;11.066;2023-10-08T07:14:06;24.45;;;15.25;;
23346;SDS011;36852;45.466;11.066;2023-10-08T07:16:36;27.32;;;15.05;;
23346;SDS011;36852;45.466;11.066;2023-10-08T07:19:05;28.05;;;14.93;;
23346;SDS011;36852;45.466;11.066;2023-10-08T07:21:37;29.12;;;14.70;;
23346;SDS011;36852;45.466;11.066;2023-10-08T07:24:10;27.67;;;15.63;;
23346;SDS011;36852;45.466;11.066;2023-10-08T07:26:40;25.77;;;16.32;;
23346;SDS011;36852;45.466;11.066;2023-10-08T07:29:16;26.40;;;16.07;;
23346;SDS011;36852;45.466;11.066;2023-10-08T07:31:45;27.73;;;16.57;;
23346;SDS011;36852;45.466;11.066;2023-10-08T07:34:16;31.90;;;18.45;;
23346;SDS011;36852;45.466;11.066;2023-10-08T07:36:46;31.00;;;17.17;;
23346;SDS011;36852;45.466;11.066;2023-10-08T07:39:16;28.57;;;18.70;;
23346;SDS011;36852;45.466;11.066;2023-10-08T07:41:53;39.13;;;19.25;;
23346;SDS011;36852;45.466;11.066;2023-10-08T07:44:23;32.50;;;19.90;;
23346;SDS011;36852;45.466;11.066;2023-10-08T07:46:53;32.88;;;19.23;;
23346;SDS011;36852;45.466;11.066;2023-10-08T07:49:22;32.13;;;18.87;;
23346;SDS011;36852;45.466;11.066;2023-10-08T07:51:52;30.85;;;17.60;;
23346;SDS011;36852;45.466;11.066;2023-10-08T07:54:20;30.27;;;17.65;;
23346;SDS011;36852;45.466;11.066;2023-10-08T07:56:50;28.05;;;18.02;;
23346;SDS011;36852;45.466;11.066;2023-10-08T07:59:38;28.42;;;17.15;;
23346;SDS011;36852;45.466;11.066;2023-10-08T08:02:18;37.35;;;18.20;;
23346;SDS011;36852;45.466;11.066;2023-10-08T08:04:50;29.12;;;15.55;;
23346;SDS011;36852;45.466;11.066;2023-10-08T08:07:23;24.95;;;15.90;;
23346;SDS011;36852;45.466;11.066;2023-10-08T08:12:35;25.40;;;13.70;;
23346;SDS011;36852;45.466;11.066;2023-10-08T08:15:06;21.35;;;11.90;;
23346;SDS011;36852;45.466;11.066;2023-10-08T08:17:36;18.82;;;12.13;;
23346;SDS011;36852;45.466;11.066;2023-10-08T08:20:04;21.17;;;11.65;;
23346;SDS011;36852;45.466;11.066;2023-10-08T08:22:38;23.65;;;11.10;;
23346;SDS011;36852;45.466;11.066;2023-10-08T08:25:08;19.80;;;10.60;;
23346;SDS011;36852;45.466;11.066;2023-10-08T08:27:56;17.92;;;10.72;;
23346;SDS011;36852;45.466;11.066;2023-10-08T08:30:24;19.62;;;11.25;;
23346;SDS011;36852;45.466;11.066;2023-10-08T08:32:53;17.98;;;9.98;;
23346;SDS011;36852;45.466;11.066;2023-10-08T08:35:24;18.07;;;12.10;;
23346;SDS011;36852;45.466;11.066;2023-10-08T08:37:52;20.50;;;12.33;;
23346;SDS011;36852;45.466;11.066;2023-10-08T08:40:20;19.70;;;13.95;;
23346;SDS011;36852;45.466;11.066;2023-10-08T08:42:49;30.20;;;17.50;;
23346;SDS011;36852;45.466;11.066;2023-10-08T08:45:21;31.37;;;19.17;;
23346;SDS011;36852;45.466;11.066;2023-10-08T08:47:54;26.65;;;16.57;;
23346;SDS011;36852;45.466;11.066;2023-10-08T08:50:23;28.77;;;19.40;;
23346;SDS011;36852;45.466;11.066;2023-10-08T08:52:54;30.88;;;17.95;;
23346;SDS011;36852;45.466;11.066;2023-10-08T08:55:23;27.67;;;17.87;;
23346;SDS011;36852;45.466;11.066;2023-10-08T08:57:53;26.50;;;16.95;;
23346;SDS011;36852;45.466;11.066;2023-10-08T09:00:22;26.48;;;17.30;;
23346;SDS011;36852;45.466;11.066;2023-10-08T09:02:55;20.20;;;13.43;;
23346;SDS011;36852;45.466;11.066;2023-10-08T09:05:23;28.77;;;18.98;;
23346;SDS011;36852;45.466;11.066;2023-10-08T09:07:58;30.15;;;18.37;;
23346;SDS011;36852;45.466;11.066;2023-10-08T09:10:30;25.48;;;17.37;;
23346;SDS011;36852;45.466;11.066;2023-10-08T09:13:01;32.42;;;19.20;;
23346;SDS011;36852;45.466;11.066;2023-10-08T09:15:32;32.33;;;17.32;;
23346;SDS011;36852;45.466;11.066;2023-10-08T09:18:01;36.42;;;21.02;;
23346;SDS011;36852;45.466;11.066;2023-10-08T09:20:30;30.65;;;19.52;;
23346;SDS011;36852;45.466;11.066;2023-10-08T09:23:09;25.08;;;16.93;;
23346;SDS011;36852;45.466;11.066;2023-10-08T09:25:35;31.87;;;19.07;;
23346;SDS011;36852;45.466;11.066;2023-10-08T09:28:03;28.23;;;18.40;;
23346;SDS011;36852;45.466;11.066;2023-10-08T09:30:36;23.85;;;13.35;;
23346;SDS011;36852;45.466;11.066;2023-10-08T09:33:15;30.82;;;19.35;;
23346;SDS011;36852;45.466;11.066;2023-10-08T09:35:45;31.27;;;19.65;;
23346;SDS011;36852;45.466;11.066;2023-10-08T09:38:14;30.57;;;18.95;;
23346;SDS011;36852;45.466;11.066;2023-10-08T09:40:45;29.05;;;20.02;;
23346;SDS011;36852;45.466;11.066;2023-10-08T09:43:13;40.28;;;22.65;;
23346;SDS011;36852;45.466;11.066;2023-10-08T09:45:47;34.95;;;22.27;;
23346;SDS011;36852;45.466;11.066;2023-10-08T09:48:25;31.80;;;22.45;;
23346;SDS011;36852;45.466;11.066;2023-10-08T09:50:55;33.35;;;21.37;;
23346;SDS011;36852;45.466;11.066;2023-10-08T09:53:32;49.53;;;21.50;;
23346;SDS011;36852;45.466;11.066;2023-10-08T09:56:14;32.20;;;19.75;;
23346;SDS011;36852;45.466;11.066;2023-10-08T09:58:38;35.28;;;20.30;;
23346;SDS011;36852;45.466;11.066;2023-10-08T10:01:07;33.00;;;19.65;;
23346;SDS011;36852;45.466;11.066;2023-10-08T10:03:37;37.90;;;24.23;;
23346;SDS011;36852;45.466;11.066;2023-10-08T10:06:11;30.77;;;20.17;;
23346;SDS011;36852;45.466;11.066;2023-10-08T10:08:40;27.22;;;17.95;;
23346;SDS011;36852;45.466;11.066;2023-10-08T10:11:11;30.72;;;15.95;;
23346;SDS011;36852;45.466;11.066;2023-10-08T10:13:45;23.57;;;14.03;;
23346;SDS011;36852;45.466;11.066;2023-10-08T10:16:12;19.77;;;11.00;;
23346;SDS011;36852;45.466;11.066;2023-10-08T10:18:54;22.45;;;11.50;;
23346;SDS011;36852;45.466;11.066;2023-10-08T10:21:31;20.05;;;12.00;;
23346;SDS011;36852;45.466;11.066;2023-10-08T10:24:01;23.95;;;13.80;;
23346;SDS011;36852;45.466;11.066;2023-10-08T10:31:43;16.62;;;8.85;;
23346;SDS011;36852;45.466;11.066;2023-10-08T10:34:18;18.60;;;7.83;;
23346;SDS011;36852;45.466;11.066;2023-10-08T10:36:49;15.85;;;8.48;;
23346;SDS011;36852;45.466;11.066;2023-10-08T10:39:20;16.48;;;10.18;;
23346;SDS011;36852;45.466;11.066;2023-10-08T10:41:55;19.07;;;10.30;;
23346;SDS011;36852;45.466;11.066;2023-10-08T10:44:25;21.35;;;13.48;;
23346;SDS011;36852;45.466;11.066;2023-10-08T10:46:53;16.15;;;8.40;;
23346;SDS011;36852;45.466;11.066;2023-10-08T10:49:40;15.63;;;7.72;;
23346;SDS011;36852;45.466;11.066;2023-10-08T10:52:25;15.23;;;8.53;;
23346;SDS011;36852;45.466;11.066;2023-10-08T10:55:04;16.57;;;8.68;;
23346;SDS011;36852;45.466;11.066;2023-10-08T10:57:36;22.22;;;9.85;;
23346;SDS011;36852;45.466;11.066;2023-10-08T11:00:09;17.00;;;9.78;;
23346;SDS011;36852;45.466;11.066;2023-10-08T11:02:56;17.25;;;9.55;;
23346;SDS011;36852;45.466;11.066;2023-10-08T11:05:27;15.23;;;8.30;;
23346;SDS011;36852;45.466;11.066;2023-10-08T11:07:59;16.60;;;8.75;;
23346;SDS011;36852;45.466;11.066;2023-10-08T11:10:34;19.37;;;8.53;;
23346;SDS011;36852;45.466;11.066;2023-10-08T11:13:07;14.83;;;8.20;;
23346;SDS011;36852;45.466;11.066;2023-10-08T11:15:42;17.02;;;9.33;;
23346;SDS011;36852;45.466;11.066;2023-10-08T11:18:13;17.98;;;8.35;;
23346;SDS011;36852;45.466;11.066;2023-10-08T11:20:43;17.35;;;7.75;;
23346;SDS011;36852;45.466;11.066;2023-10-08T11:26:03;16.48;;;8.73;;
23346;SDS011;36852;45.466;11.066;2023-10-08T11:28:36;18.17;;;8.13;;
23346;SDS011;36852;45.466;11.066;2023-10-08T11:31:06;18.15;;;8.45;;
23346;SDS011;36852;45.466;11.066;2023-10-08T11:33:38;17.20;;;7.85;;
23346;SDS011;36852;45.466;11.066;2023-10-08T11:36:10;18.95;;;8.43;;
23346;SDS011;36852;45.466;11.066;2023-10-08T11:38:42;15.25;;;7.05;;
23346;SDS011;36852;45.466;11.066;2023-10-08T11:41:10;14.20;;;7.58;;
23346;SDS011;36852;45.466;11.066;2023-10-08T11:43:41;11.25;;;7.12;;
23346;SDS011;36852;45.466;11.066;2023-10-08T11:46:11;16.45;;;7.35;;
23346;SDS011;36852;45.466;11.066;2023-10-08T11:48:41;13.88;;;8.35;;
23346;SDS011;36852;45.466;11.066;2023-10-08T11:51:12;12.93;;;7.47;;
23346;SDS011;36852;45.466;11.066;2023-10-08T11:53:43;15.58;;;7.25;;
23346;SDS011;36852;45.466;11.066;2023-10-08T11:56:11;19.50;;;7.60;;
23346;SDS011;36852;45.466;11.066;2023-10-08T11:58:41;16.90;;;8.00;;
23346;SDS011;36852;45.466;11.066;2023-10-08T12:01:11;11.22;;;6.78;;
23346;SDS011;36852;45.466;11.066;2023-10-08T12:03:42;14.00;;;7.45;;
23346;SDS011;36852;45.466;11.066;2023-10-08T12:06:14;9.40;;;6.17;;
23346;SDS011;36852;45.466;11.066;2023-10-08T12:08:42;11.88;;;5.67;;
23346;SDS011;36852;45.466;11.066;2023-10-08T12:11:15;15.18;;;6.85;;
23346;SDS011;36852;45.466;11.066;2023-10-08T12:13:43;13.80;;;6.03;;
23346;SDS011;36852;45.466;11.066;2023-10-08T12:16:12;13.62;;;5.72;;
23346;SDS011;36852;45.466;11.066;2023-10-08T12:18:48;13.35;;;6.20;;
23346;SDS011;36852;45.466;11.066;2023-10-08T12:21:23;12.47;;;5.45;;
23346;SDS011;36852;45.466;11.066;2023-10-08T12:23:49;11.22;;;5.67;;
23346;SDS011;36852;45.466;11.066;2023-10-08T12:26:21;13.75;;;5.58;;
23346;SDS011;36852;45.466;11.066;2023-10-08T12:28:49;17.77;;;5.58;;
23346;SDS011;36852;45.466;11.066;2023-10-08T12:31:18;11.95;;;5.62;;
23346;SDS011;36852;45.466;11.066;2023-10-08T12:33:50;16.97;;;6.00;;
23346;SDS011;36852;45.466;11.066;2023-10-08T12:36:23;12.18;;;5.60;;
23346;SDS011;36852;45.466;11.066;2023-10-08T12:38:56;12.68;;;6.37;;
23346;SDS011;36852;45.466;11.066;2023-10-08T12:41:26;15.03;;;6.47;;
23346;SDS011;36852;45.466;11.066;2023-10-08T12:43:54;12.30;;;5.87;;
23346;SDS011;36852;45.466;11.066;2023-10-08T12:46:22;12.73;;;6.87;;
23346;SDS011;36852;45.466;11.066;2023-10-08T12:48:53;12.40;;;6.62;;
23346;SDS011;36852;45.466;11.066;2023-10-08T12:51:23;15.55;;;6.20;;
23346;SDS011;36852;45.466;11.066;2023-10-08T12:53:53;11.85;;;5.33;;
23346;SDS011;36852;45.466;11.066;2023-10-08T12:56:26;13.28;;;5.85;;
23346;SDS011;36852;45.466;11.066;2023-10-08T12:59:02;13.00;;;6.05;;
23346;SDS011;36852;45.466;11.066;2023-10-08T13:01:36;10.78;;;5.10;;
23346;SDS011;36852;45.466;11.066;2023-10-08T13:04:06;10.38;;;5.37;;
23346;SDS011;36852;45.466;11.066;2023-10-08T13:06:34;16.27;;;6.03;;
23346;SDS011;36852;45.466;11.066;2023-10-08T13:09:04;11.28;;;4.70;;
23346;SDS011;36852;45.466;11.066;2023-10-08T13:11:37;13.80;;;5.95;;
23346;SDS011;36852;45.466;11.066;2023-10-08T13:14:06;12.73;;;5.05;;
23346;SDS011;36852;45.466;11.066;2023-10-08T13:16:34;13.18;;;5.75;;
23346;SDS011;36852;45.466;11.066;2023-10-08T13:19:04;7.37;;;5.00;;
23346;SDS011;36852;45.466;11.066;2023-10-08T13:21:34;10.58;;;5.12;;
23346;SDS011;36852;45.466;11.066;2023-10-08T13:24:05;9.88;;;4.97;;
23346;SDS011;36852;45.466;11.066;2023-10-08T13:26:38;9.23;;;5.53;;
23346;SDS011;36852;45.466;11.066;2023-10-08T13:29:06;16.62;;;5.60;;
23346;SDS011;36852;45.466;11.066;2023-10-08T13:31:37;13.62;;;6.08;;
23346;SDS011;36852;45.466;11.066;2023-10-08T13:34:05;10.72;;;5.58;;
23346;SDS011;36852;45.466;11.066;2023-10-08T13:36:36;10.08;;;5.62;;
23346;SDS011;36852;45.466;11.066;2023-10-08T13:39:07;12.58;;;6.75;;
23346;SDS011;36852;45.466;11.066;2023-10-08T13:41:39;17.67;;;5.47;;
23346;SDS011;36852;45.466;11.066;2023-10-08T13:44:11;8.13;;;5.35;;
23346;SDS011;36852;45.466;11.066;2023-10-08T13:46:42;10.80;;;5.90;;
23346;SDS011;36852;45.466;11.066;2023-10-08T13:49:12;11.93;;;6.00;;
23346;SDS011;36852;45.466;11.066;2023-10-08T13:51:41;17.10;;;5.80;;
23346;SDS011;36852;45.466;11.066;2023-10-08T13:54:11;11.83;;;6.25;;
23346;SDS011;36852;45.466;11.066;2023-10-08T13:56:39;16.27;;;5.70;;
23346;SDS011;36852;45.466;11.066;2023-10-08T13:59:09;10.30;;;5.40;;
23346;SDS011;36852;45.466;11.066;2023-10-08T14:01:41;14.75;;;5.92;;
23346;SDS011;36852;45.466;11.066;2023-10-08T14:04:13;13.03;;;5.03;;
23346;SDS011;36852;45.466;11.066;2023-10-08T14:06:43;12.33;;;5.70;;
23346;SDS011;36852;45.466;11.066;2023-10-08T14:09:12;12.80;;;5.25;;
23346;SDS011;36852;45.466;11.066;2023-10-08T14:11:42;10.63;;;5.47;;
23346;SDS011;36852;45.466;11.066;2023-10-08T14:14:10;10.53;;;5.28;;
23346;SDS011;36852;45.466;11.066;2023-10-08T14:16:40;13.32;;;6.33;;
23346;SDS011;36852;45.466;11.066;2023-10-08T14:19:13;13.15;;;5.67;;
23346;SDS011;36852;45.466;11.066;2023-10-08T14:21:42;17.15;;;5.72;;
23346;SDS011;36852;45.466;11.066;2023-10-08T14:24:17;12.58;;;5.65;;
23346;SDS011;36852;45.466;11.066;2023-10-08T14:26:46;13.22;;;6.03;;
23346;SDS011;36852;45.466;11.066;2023-10-08T14:29:18;13.30;;;5.83;;
23346;SDS011;36852;45.466;11.066;2023-10-08T14:31:46;14.93;;;5.83;;
23346;SDS011;36852;45.466;11.066;2023-10-08T14:34:17;16.55;;;6.42;;
23346;SDS011;36852;45.466;11.066;2023-10-08T14:36:47;12.43;;;5.87;;
23346;SDS011;36852;45.466;11.066;2023-10-08T14:39:34;13.28;;;6.25;;
23346;SDS011;36852;45.466;11.066;2023-10-08T14:42:21;9.33;;;4.97;;
23346;SDS011;36852;45.466;11.066;2023-10-08T14:45:08;15.43;;;6.50;;
23346;SDS011;36852;45.466;11.066;2023-10-08T14:47:40;18.85;;;5.85;;
23346;SDS011;36852;45.466;11.066;2023-10-08T14:50:12;10.68;;;5.87;;
23346;SDS011;36852;45.466;11.066;2023-10-08T14:52:46;13.43;;;6.70;;
23346;SDS011;36852;45.466;11.066;2023-10-08T14:55:12;11.05;;;6.47;;
23346;SDS011;36852;45.466;11.066;2023-10-08T14:57:40;13.62;;;6.45;;
23346;SDS011;36852;45.466;11.066;2023-10-08T15:00:09;14.80;;;6.05;;
23346;SDS011;36852;45.466;11.066;2023-10-08T15:05:21;15.38;;;6.22;;
23346;SDS011;36852;45.466;11.066;2023-10-08T15:07:51;12.73;;;5.17;;
23346;SDS011;36852;45.466;11.066;2023-10-08T15:10:19;10.63;;;5.72;;
23346;SDS011;36852;45.466;11.066;2023-10-08T15:12:51;14.55;;;6.50;;
23346;SDS011;36852;45.466;11.066;2023-10-08T15:15:19;13.03;;;6.08;;